createdAt,value
2017-06-12T00:00:00.865Z,0
2017-06-12T00:01:00.588Z,0
2017-06-12T00:03:00.944Z,0
2017-06-12T00:04:00.673Z,0
2017-06-12T00:05:15.620Z,0
2017-06-12T00:06:01.030Z,0
2017-06-12T00:08:01.080Z,0
2017-06-12T00:09:01.110Z,0
2017-06-12T00:10:01.134Z,0
2017-06-12T00:11:01.162Z,0
2017-06-12T00:12:01.189Z,0
2017-06-12T00:13:01.216Z,0
2017-06-12T00:14:01.245Z,0
2017-06-12T00:15:01.267Z,0
2017-06-12T00:16:15.914Z,0
2017-06-12T00:17:01.320Z,0
2017-06-12T00:18:01.350Z,0
2017-06-12T00:19:01.376Z,0
2017-06-12T00:20:01.404Z,0
2017-06-12T00:21:16.048Z,0
2017-06-12T00:22:01.159Z,0
2017-06-12T00:23:01.481Z,0
2017-06-12T00:24:01.209Z,0
2017-06-12T00:25:01.538Z,0
2017-06-12T00:26:01.561Z,0
2017-06-12T00:27:01.592Z,0
2017-06-12T00:28:01.621Z,0
2017-06-12T00:29:16.265Z,0
2017-06-12T00:30:01.675Z,0
2017-06-12T00:31:00.791Z,0
2017-06-12T00:32:01.729Z,0
2017-06-12T00:33:01.449Z,0
2017-06-12T00:34:01.477Z,0
2017-06-12T00:35:01.500Z,0
2017-06-12T00:36:01.528Z,0
2017-06-12T00:37:16.476Z,0
2017-06-12T00:38:01.579Z,0
2017-06-12T00:39:01.608Z,0
2017-06-12T00:41:01.965Z,0
2017-06-12T00:42:01.688Z,0
2017-06-12T00:43:01.717Z,0
2017-06-12T00:44:02.050Z,0
2017-06-12T00:45:02.072Z,0
2017-06-12T00:46:02.103Z,0
2017-06-12T00:47:02.128Z,0
2017-06-12T00:48:16.467Z,0
2017-06-12T00:49:16.796Z,0
2017-06-12T00:50:02.209Z,0
2017-06-12T00:51:01.635Z,0
2017-06-12T00:53:16.904Z,0
2017-06-12T00:55:01.734Z,0
2017-06-12T00:56:02.064Z,0
2017-06-12T00:57:01.788Z,0
2017-06-12T00:58:02.418Z,0
2017-06-12T00:59:02.447Z,0
2017-06-12T01:00:02.475Z,0
2017-06-12T01:01:02.500Z,0
2017-06-12T01:02:02.527Z,0
2017-06-12T01:03:02.554Z,0
2017-06-12T01:04:02.274Z,0
2017-06-12T01:06:17.253Z,0
2017-06-12T01:07:02.659Z,0
2017-06-12T01:09:02.717Z,0
2017-06-12T01:10:02.436Z,0
2017-06-12T01:11:02.766Z,0
2017-06-12T01:12:02.796Z,0
2017-06-12T01:13:02.820Z,0
2017-06-12T01:14:02.543Z,0
2017-06-12T01:15:02.872Z,0
2017-06-12T01:16:02.597Z,0
2017-06-12T01:17:02.995Z,0
2017-06-12T01:18:02.953Z,0
2017-06-12T01:20:03.005Z,0
2017-06-12T01:21:03.041Z,0
2017-06-12T01:23:03.086Z,0
2017-06-12T01:24:03.111Z,0
2017-06-12T01:25:02.840Z,0
2017-06-12T01:27:03.192Z,0
2017-06-12T01:28:03.220Z,0
2017-06-12T01:29:03.244Z,0
2017-06-12T01:30:02.969Z,0
2017-06-12T01:31:03.302Z,0
2017-06-12T01:32:03.323Z,0
2017-06-12T01:33:03.052Z,0
2017-06-12T01:34:17.997Z,0
2017-06-12T01:35:18.024Z,0
2017-06-12T01:36:03.430Z,0
2017-06-12T01:37:03.458Z,0
2017-06-12T01:38:03.536Z,0
2017-06-12T01:39:03.511Z,0
2017-06-12T01:40:18.155Z,0
2017-06-12T01:41:03.564Z,0
2017-06-12T01:42:03.594Z,0
2017-06-12T01:44:03.341Z,0
2017-06-12T01:45:03.679Z,0
2017-06-12T01:46:03.394Z,0
2017-06-12T01:47:03.724Z,0
2017-06-12T01:48:03.449Z,0
2017-06-12T01:49:03.781Z,0
2017-06-12T01:50:18.423Z,0
2017-06-12T01:51:03.832Z,0
2017-06-12T01:52:03.556Z,0
2017-06-12T01:54:18.226Z,0
2017-06-12T01:55:03.937Z,0
2017-06-12T01:56:18.586Z,0
2017-06-12T01:57:03.687Z,0
2017-06-12T01:58:03.715Z,0
2017-06-12T01:59:03.739Z,0
2017-06-12T02:00:04.078Z,0
2017-06-12T02:01:03.793Z,0
2017-06-12T02:02:04.124Z,0
2017-06-12T02:03:04.149Z,0
2017-06-12T02:04:04.175Z,0
2017-06-12T02:05:18.822Z,0
2017-06-12T02:06:04.227Z,0
2017-06-12T02:07:18.872Z,0
2017-06-12T02:08:04.293Z,0
2017-06-12T02:09:18.926Z,4
2017-06-12T02:11:04.361Z,4
2017-06-12T02:12:19.009Z,4
2017-06-12T02:13:04.414Z,0
2017-06-12T02:14:04.447Z,0
2017-06-12T02:15:04.471Z,4
2017-06-12T02:16:04.498Z,4
2017-06-12T02:17:04.521Z,8
2017-06-12T02:18:04.546Z,4
2017-06-12T02:19:04.575Z,4
2017-06-12T02:20:04.598Z,4
2017-06-12T02:21:04.627Z,4
2017-06-12T02:22:19.271Z,8
2017-06-12T02:23:04.679Z,4
2017-06-12T02:24:19.325Z,8
2017-06-12T02:25:04.733Z,12
2017-06-12T02:26:04.760Z,12
2017-06-12T02:27:04.786Z,16
2017-06-12T02:28:19.428Z,16
2017-06-12T02:29:04.838Z,20
2017-06-12T02:30:04.562Z,20
2017-06-12T02:31:04.892Z,24
2017-06-12T02:32:04.917Z,28
2017-06-12T02:33:04.946Z,28
2017-06-12T02:34:04.971Z,28
2017-06-12T02:35:04.695Z,32
2017-06-12T02:36:05.023Z,36
2017-06-12T02:37:04.747Z,36
2017-06-12T02:38:19.695Z,40
2017-06-12T02:39:05.100Z,40
2017-06-12T02:41:05.155Z,40
2017-06-12T02:42:04.882Z,40
2017-06-12T02:43:19.827Z,44
2017-06-12T02:44:04.931Z,48
2017-06-12T02:46:04.687Z,68
2017-06-12T02:47:05.010Z,76
2017-06-12T02:48:05.039Z,80
2017-06-12T02:49:05.065Z,88
2017-06-12T02:50:04.786Z,96
2017-06-12T02:51:05.118Z,108
2017-06-12T02:52:19.763Z,128
2017-06-12T02:53:19.788Z,132
2017-06-12T02:54:19.821Z,136
2017-06-12T02:55:05.224Z,128
2017-06-12T02:56:04.950Z,116
2017-06-12T02:57:20.198Z,108
2017-06-12T02:58:05.607Z,100
2017-06-12T02:59:05.633Z,96
2017-06-12T03:01:05.685Z,104
2017-06-12T03:02:05.713Z,112
2017-06-12T03:03:05.734Z,128
2017-06-12T03:04:05.765Z,140
2017-06-12T03:05:05.789Z,152
2017-06-12T03:06:05.820Z,160
2017-06-12T03:07:05.843Z,152
2017-06-12T03:08:05.871Z,144
2017-06-12T03:09:20.515Z,132
2017-06-12T03:10:05.619Z,132
2017-06-12T03:11:05.950Z,140
2017-06-12T03:13:06.002Z,152
2017-06-12T03:14:06.029Z,156
2017-06-12T03:15:20.673Z,172
2017-06-12T03:16:06.089Z,180
2017-06-12T03:17:06.109Z,176
2017-06-12T03:18:06.136Z,176
2017-06-12T03:19:06.162Z,196
2017-06-12T03:20:06.195Z,224
2017-06-12T03:21:05.918Z,264
2017-06-12T03:22:20.862Z,328
2017-06-12T03:23:06.269Z,396
2017-06-12T03:24:06.292Z,516
2017-06-12T03:25:06.320Z,692
2017-06-12T03:26:20.964Z,788
2017-06-12T03:27:06.372Z,772
2017-06-12T03:29:21.041Z,660
2017-06-12T03:30:06.456Z,668
2017-06-12T03:31:21.099Z,808
2017-06-12T03:32:06.504Z,932
2017-06-12T03:33:06.532Z,1072
2017-06-12T03:34:06.558Z,1224
2017-06-12T03:35:06.583Z,1364
2017-06-12T03:36:06.610Z,1528
2017-06-12T03:37:06.639Z,1932
2017-06-12T03:38:06.662Z,2044
2017-06-12T03:39:06.710Z,1988
2017-06-12T03:40:06.717Z,2060
2017-06-12T03:42:06.464Z,2480
2017-06-12T03:43:06.494Z,2712
2017-06-12T03:44:06.819Z,3044
2017-06-12T03:45:06.850Z,3232
2017-06-12T03:46:06.875Z,3252
2017-06-12T03:47:21.520Z,3292
2017-06-12T03:48:06.925Z,3524
2017-06-12T03:49:06.652Z,3784
2017-06-12T03:50:06.676Z,4004
2017-06-12T03:51:07.007Z,4444
2017-06-12T03:52:07.034Z,4708
2017-06-12T03:53:06.758Z,4844
2017-06-12T03:54:07.088Z,5024
2017-06-12T03:55:07.167Z,5248
2017-06-12T03:56:07.141Z,5624
2017-06-12T03:57:06.866Z,5364
2017-06-12T03:58:21.811Z,5060
2017-06-12T03:59:06.613Z,4664
2017-06-12T04:00:06.947Z,4184
2017-06-12T04:01:07.273Z,3952
2017-06-12T04:02:21.918Z,3772
2017-06-12T04:03:21.944Z,3696
2017-06-12T04:06:07.102Z,4268
2017-06-12T04:07:22.058Z,3900
2017-06-12T04:08:07.460Z,4584
2017-06-12T04:09:07.488Z,3412
2017-06-12T04:10:07.517Z,3072
2017-06-12T04:11:07.572Z,3364
2017-06-12T04:12:07.567Z,3556
2017-06-12T04:14:07.622Z,3580
2017-06-12T04:15:21.963Z,3640
2017-06-12T04:16:07.374Z,3860
2017-06-12T04:17:07.703Z,18624
2017-06-12T04:18:22.347Z,3664
2017-06-12T04:20:07.484Z,3696
2017-06-12T04:21:07.815Z,3472
2017-06-12T04:22:07.837Z,3408
2017-06-12T04:23:07.867Z,3344
2017-06-12T04:24:07.890Z,3264
2017-06-12T04:25:07.922Z,3144
2017-06-12T04:26:07.946Z,3116
2017-06-12T04:27:07.985Z,2888
2017-06-12T04:28:22.011Z,2412
2017-06-12T04:29:08.031Z,2236
2017-06-12T04:30:07.750Z,2016
2017-06-12T04:31:07.803Z,1804
2017-06-12T04:32:08.114Z,1604
2017-06-12T04:33:08.135Z,1452
2017-06-12T04:34:08.162Z,1324
2017-06-12T04:35:07.885Z,1240
2017-06-12T04:36:07.913Z,1248
2017-06-12T04:37:07.944Z,1228
2017-06-12T04:38:08.268Z,1132
2017-06-12T04:39:07.994Z,1128
2017-06-12T04:40:22.338Z,1160
2017-06-12T04:41:08.351Z,1180
2017-06-12T04:42:07.774Z,1192
2017-06-12T04:43:08.406Z,1292
2017-06-12T04:44:08.130Z,1392
2017-06-12T04:45:08.460Z,1444
2017-06-12T04:46:23.104Z,1460
2017-06-12T04:47:08.513Z,1488
2017-06-12T04:48:23.159Z,1564
2017-06-12T04:49:08.263Z,1868
2017-06-12T04:50:23.209Z,1572
2017-06-12T04:51:08.314Z,1408
2017-06-12T04:52:08.650Z,1404
2017-06-12T04:53:08.674Z,1840
2017-06-12T04:54:08.700Z,2108
2017-06-12T04:55:08.727Z,1996
2017-06-12T04:56:08.787Z,1840
2017-06-12T04:57:08.782Z,2040
2017-06-12T04:58:08.504Z,2348
2017-06-12T04:59:08.833Z,2504
2017-06-12T05:00:08.556Z,2708
2017-06-12T05:01:08.888Z,3328
2017-06-12T05:03:23.560Z,3864
2017-06-12T05:04:08.969Z,4168
2017-06-12T05:05:09.010Z,4728
2017-06-12T05:06:23.641Z,3876
2017-06-12T05:07:08.747Z,3896
2017-06-12T05:08:09.091Z,21408
2017-06-12T05:10:09.143Z,2540
2017-06-12T05:11:09.154Z,2548
2017-06-12T05:12:09.203Z,2564
2017-06-12T05:13:09.208Z,2492
2017-06-12T05:14:08.933Z,2144
2017-06-12T05:15:09.274Z,1956
2017-06-12T05:16:09.289Z,2060
2017-06-12T05:17:09.317Z,2152
2017-06-12T05:18:09.343Z,2340
2017-06-12T05:19:09.377Z,2532
2017-06-12T05:20:09.399Z,2660
2017-06-12T05:21:09.423Z,2944
2017-06-12T05:22:24.067Z,3896
2017-06-12T05:23:09.475Z,4464
2017-06-12T05:24:09.199Z,4376
2017-06-12T05:26:09.560Z,5236
2017-06-12T05:27:09.280Z,6444
2017-06-12T05:28:09.912Z,8124
2017-06-12T05:29:09.336Z,9388
2017-06-12T05:30:09.362Z,11552
2017-06-12T05:31:09.692Z,16896
2017-06-12T05:33:24.364Z,21888
2017-06-12T05:34:24.391Z,5260
2017-06-12T05:35:09.801Z,4292
2017-06-12T05:36:09.834Z,4116
2017-06-12T05:38:24.503Z,8032
2017-06-12T05:39:09.913Z,10140
2017-06-12T05:40:09.946Z,10744
2017-06-12T05:41:09.667Z,10024
2017-06-12T05:42:09.992Z,11008
2017-06-12T05:43:10.021Z,11200
2017-06-12T05:44:10.049Z,11860
2017-06-12T05:45:09.775Z,10912
2017-06-12T05:46:10.113Z,6692
2017-06-12T05:47:10.138Z,5820
2017-06-12T05:48:10.157Z,5516
2017-06-12T05:49:24.806Z,4764
2017-06-12T05:50:09.915Z,4236
2017-06-12T05:51:10.249Z,3992
2017-06-12T05:52:09.968Z,3976
2017-06-12T05:53:24.919Z,4712
2017-06-12T05:54:10.326Z,5592
2017-06-12T05:55:10.054Z,7452
2017-06-12T05:56:10.082Z,7712
2017-06-12T05:57:10.410Z,6884
2017-06-12T05:58:10.436Z,7756
2017-06-12T05:59:10.465Z,9564
2017-06-12T06:00:10.237Z,10392
2017-06-12T06:01:10.571Z,13128
2017-06-12T06:02:25.168Z,9824
2017-06-12T06:03:10.574Z,8592
2017-06-12T06:04:25.223Z,6768
2017-06-12T06:05:10.632Z,6064
2017-06-12T06:06:10.658Z,5432
2017-06-12T06:07:10.387Z,4672
2017-06-12T06:08:10.717Z,3988
2017-06-12T06:09:10.436Z,3536
2017-06-12T06:10:10.776Z,3552
2017-06-12T06:11:10.493Z,3796
2017-06-12T06:12:10.520Z,3944
2017-06-12T06:13:10.899Z,3940
2017-06-12T06:14:10.878Z,3836
2017-06-12T06:15:10.904Z,3768
2017-06-12T06:16:10.936Z,4136
2017-06-12T06:17:10.961Z,5384
2017-06-12T06:18:10.992Z,8848
2017-06-12T06:19:11.020Z,13804
2017-06-12T06:20:11.044Z,13404
2017-06-12T06:21:11.075Z,14440
2017-06-12T06:23:11.132Z,25184
2017-06-12T06:24:11.152Z,15728
2017-06-12T06:25:25.804Z,18592
2017-06-12T06:27:11.237Z,43520
2017-06-12T06:29:11.295Z,7876
2017-06-12T06:30:11.323Z,6680
2017-06-12T06:31:11.048Z,5980
2017-06-12T06:32:11.378Z,5684
2017-06-12T06:33:11.406Z,5424
2017-06-12T06:34:25.751Z,5632
2017-06-12T06:35:11.466Z,6780
2017-06-12T06:36:11.494Z,7716
2017-06-12T06:38:11.549Z,9244
2017-06-12T06:40:11.655Z,14684
2017-06-12T06:41:26.253Z,21184
2017-06-12T06:42:11.660Z,22848
2017-06-12T06:43:11.690Z,12744
2017-06-12T06:44:11.718Z,11744
2017-06-12T06:45:11.749Z,12160
2017-06-12T06:46:11.773Z,10100
2017-06-12T06:47:11.806Z,10144
2017-06-12T06:48:11.831Z,9708
2017-06-12T06:49:11.861Z,11392
2017-06-12T06:50:11.887Z,13592
2017-06-12T06:51:26.232Z,26080
2017-06-12T06:52:11.944Z,13436
2017-06-12T06:53:11.972Z,19456
2017-06-12T06:54:26.619Z,20320
2017-06-12T06:55:12.032Z,60960
2017-06-12T06:56:12.058Z,26176
2017-06-12T06:57:26.707Z,44000
2017-06-12T06:58:12.115Z,41696
2017-06-12T07:00:12.178Z,33664
2017-06-12T07:01:11.904Z,42336
2017-06-12T07:02:11.625Z,74784
2017-06-12T07:03:12.265Z,18944
2017-06-12T07:04:12.296Z,16696
2017-06-12T07:05:12.022Z,33152
2017-06-12T07:06:26.976Z,24544
2017-06-12T07:07:27.005Z,61792
2017-06-12T07:09:27.066Z,43680
2017-06-12T07:10:26.801Z,20288
2017-06-12T07:11:12.514Z,78176
2017-06-12T07:13:27.198Z,74496
2017-06-12T07:14:12.603Z,18528
2017-06-12T07:15:12.656Z,59904
2017-06-12T07:17:27.321Z,72096
2017-06-12T07:18:12.736Z,71200
2017-06-12T07:19:12.764Z,75328
2017-06-12T07:20:27.420Z,73664
2017-06-12T07:21:12.829Z,72832
2017-06-12T07:22:27.179Z,59488
2017-06-12T07:23:27.516Z,66560
2017-06-12T07:24:12.928Z,64896
2017-06-12T07:25:12.963Z,68736
2017-06-12T07:27:13.037Z,72320
2017-06-12T07:28:27.682Z,65472
2017-06-12T07:29:12.797Z,66624
2017-06-12T07:30:13.134Z,68736
2017-06-12T07:32:13.201Z,71232
2017-06-12T07:33:13.233Z,67904
2017-06-12T07:34:13.269Z,66176
2017-06-12T07:35:13.000Z,53792
2017-06-12T07:36:13.038Z,72448
2017-06-12T07:37:13.069Z,67040
2017-06-12T07:38:13.105Z,39392
2017-06-12T07:40:13.478Z,64704
2017-06-12T07:41:28.134Z,14556
2017-06-12T07:42:13.549Z,12352
2017-06-12T07:43:13.583Z,14168
2017-06-12T07:44:13.011Z,11592
2017-06-12T07:45:13.656Z,23776
2017-06-12T07:47:13.742Z,66400
2017-06-12T07:48:13.771Z,62912
2017-06-12T07:49:13.792Z,60128
2017-06-12T07:50:13.520Z,61184
2017-06-12T07:51:13.860Z,62816
2017-06-12T07:52:13.590Z,65792
2017-06-12T07:53:13.929Z,63936
2017-06-12T07:54:27.976Z,60576
2017-06-12T07:55:13.999Z,63392
2017-06-12T07:56:14.083Z,43552
2017-06-12T07:57:14.070Z,62144
2017-06-12T07:58:14.103Z,61280
2017-06-12T07:59:28.756Z,35520
2017-06-12T08:00:28.796Z,15792
2017-06-12T08:02:14.246Z,18080
2017-06-12T08:03:14.275Z,13220
2017-06-12T08:05:14.546Z,63520
2017-06-12T08:06:14.481Z,58816
2017-06-12T08:07:14.111Z,59776
2017-06-12T08:08:14.499Z,12604
2017-06-12T08:09:14.182Z,10800
2017-06-12T08:10:14.217Z,10312
2017-06-12T08:11:14.552Z,13096
2017-06-12T08:12:28.902Z,14556
2017-06-12T08:13:14.520Z,26688
2017-06-12T08:14:29.275Z,13976
2017-06-12T08:15:14.688Z,19616
2017-06-12T08:16:29.342Z,11360
2017-06-12T08:17:14.757Z,22624
2017-06-12T08:18:14.788Z,22272
2017-06-12T08:19:15.124Z,19552
2017-06-12T08:20:14.555Z,16108
2017-06-12T08:21:14.588Z,13940
2017-06-12T08:22:14.620Z,14384
2017-06-12T08:23:14.959Z,13752
2017-06-12T08:24:14.690Z,21664
2017-06-12T08:25:14.721Z,20224
2017-06-12T08:26:15.058Z,21120
2017-06-12T08:27:15.103Z,24736
2017-06-12T08:28:15.127Z,23008
2017-06-12T08:29:15.162Z,21632
2017-06-12T08:30:14.888Z,20960
2017-06-12T08:31:15.240Z,21568
2017-06-12T08:32:29.879Z,23456
2017-06-12T08:33:15.297Z,15036
2017-06-12T08:34:15.327Z,11360
2017-06-12T08:35:15.442Z,12028
2017-06-12T08:36:15.396Z,13664
2017-06-12T08:37:15.126Z,12136
2017-06-12T08:38:15.261Z,11924
2017-06-12T08:39:15.195Z,12220
2017-06-12T08:40:30.155Z,17248
2017-06-12T08:41:15.261Z,21568
2017-06-12T08:42:29.914Z,22912
2017-06-12T08:43:15.328Z,16448
2017-06-12T08:44:30.283Z,22016
2017-06-12T08:46:15.735Z,20096
2017-06-12T08:47:15.764Z,20032
2017-06-12T08:48:30.113Z,19712
2017-06-12T08:49:15.933Z,20000
2017-06-12T08:50:15.566Z,20832
2017-06-12T08:51:15.949Z,13264
2017-06-12T08:52:15.629Z,12940
2017-06-12T08:53:15.665Z,21696
2017-06-12T08:54:15.999Z,22720
2017-06-12T08:55:15.427Z,12044
2017-06-12T08:56:16.072Z,12668
2017-06-12T08:57:30.723Z,22720
2017-06-12T08:58:15.836Z,21600
2017-06-12T08:59:30.486Z,20160
2017-06-12T09:00:15.596Z,16640
2017-06-12T09:01:15.683Z,19488
2017-06-12T09:02:16.273Z,16372
2017-06-12T09:03:30.927Z,10984
2017-06-12T09:04:15.736Z,13592
2017-06-12T09:05:16.069Z,20256
2017-06-12T09:06:16.105Z,20064
2017-06-12T09:07:16.445Z,20416
2017-06-12T09:08:15.875Z,19552
2017-06-12T09:09:16.205Z,18848
2017-06-12T09:10:31.168Z,18144
2017-06-12T09:11:16.578Z,18496
2017-06-12T09:12:16.308Z,19008
2017-06-12T09:13:31.270Z,19552
2017-06-12T09:15:16.415Z,10380
2017-06-12T09:16:16.751Z,19936
2017-06-12T09:18:16.818Z,8524
2017-06-12T09:19:16.854Z,17696
2017-06-12T09:20:16.888Z,17664
2017-06-12T09:21:16.923Z,17760
2017-06-12T09:22:17.005Z,18176
2017-06-12T09:23:16.989Z,18528
2017-06-12T09:24:17.023Z,18464
2017-06-12T09:25:16.755Z,18752
2017-06-12T09:26:31.411Z,18528
2017-06-12T09:27:16.822Z,17920
2017-06-12T09:28:31.478Z,17312
2017-06-12T09:29:17.193Z,17408
2017-06-12T09:30:17.236Z,17056
2017-06-12T09:31:31.881Z,16584
2017-06-12T09:32:31.614Z,16356
2017-06-12T09:33:31.949Z,17344
2017-06-12T09:34:17.063Z,17664
2017-06-12T09:35:32.018Z,17952
2017-06-12T09:36:17.129Z,10972
2017-06-12T09:37:17.167Z,16832
2017-06-12T09:38:17.200Z,12488
2017-06-12T09:39:17.235Z,8744
2017-06-12T09:40:17.568Z,8472
2017-06-12T09:41:17.608Z,8712
2017-06-12T09:42:17.334Z,16284
2017-06-12T09:43:17.066Z,16736
2017-06-12T09:44:17.705Z,17632
2017-06-12T09:45:17.434Z,9544
2017-06-12T09:46:17.773Z,9360
2017-06-12T09:48:17.843Z,8240
2017-06-12T09:49:17.265Z,7712
2017-06-12T09:50:17.604Z,7428
2017-06-12T09:51:32.861Z,8420
2017-06-12T09:52:17.972Z,8300
2017-06-12T09:53:18.009Z,8612
2017-06-12T09:54:18.340Z,16436
2017-06-12T09:55:17.770Z,16296
2017-06-12T09:56:18.107Z,8140
2017-06-12T09:57:18.139Z,15912
2017-06-12T09:58:18.176Z,8736
2017-06-12T09:59:18.205Z,15900
2017-06-12T10:00:32.553Z,9056
2017-06-12T10:01:18.016Z,9212
2017-06-12T10:02:17.999Z,9072
2017-06-12T10:03:18.336Z,13904
2017-06-12T10:04:17.760Z,8704
2017-06-12T10:05:18.398Z,8496
2017-06-12T10:06:18.430Z,8572
2017-06-12T10:07:33.086Z,8508
2017-06-12T10:08:18.496Z,8888
2017-06-12T10:10:18.256Z,8200
2017-06-12T10:11:18.594Z,7532
2017-06-12T10:12:18.623Z,7064
2017-06-12T10:13:18.659Z,7204
2017-06-12T10:14:18.383Z,7000
2017-06-12T10:15:18.413Z,6816
2017-06-12T10:16:18.748Z,6936
2017-06-12T10:17:18.482Z,7196
2017-06-12T10:18:18.809Z,7480
2017-06-12T10:19:33.460Z,8008
2017-06-12T10:21:18.909Z,8168
2017-06-12T10:22:33.554Z,15536
2017-06-12T10:23:33.585Z,8080
2017-06-12T10:24:18.695Z,7724
2017-06-12T10:25:18.726Z,7364
2017-06-12T10:26:19.059Z,10496
2017-06-12T10:27:19.087Z,14096
2017-06-12T10:28:19.123Z,13400
2017-06-12T10:29:19.150Z,7848
2017-06-12T10:30:19.179Z,6780
2017-06-12T10:31:33.833Z,6944
2017-06-12T10:32:19.244Z,7192
2017-06-12T10:33:19.274Z,7144
2017-06-12T10:34:33.922Z,7692
2017-06-12T10:35:19.435Z,12716
2017-06-12T10:36:34.286Z,8548
2017-06-12T10:37:19.100Z,14464
2017-06-12T10:38:34.044Z,13920
2017-06-12T10:39:19.456Z,13748
2017-06-12T10:40:34.131Z,13452
2017-06-12T10:41:19.517Z,13404
2017-06-12T10:42:19.244Z,13004
2017-06-12T10:43:19.577Z,12760
2017-06-12T10:44:19.610Z,12644
2017-06-12T10:45:19.645Z,12660
2017-06-12T10:46:19.368Z,12884
2017-06-12T10:47:19.398Z,7012
2017-06-12T10:48:19.735Z,6556
2017-06-12T10:49:34.077Z,7408
2017-06-12T10:50:19.795Z,7952
2017-06-12T10:51:19.823Z,8516
2017-06-12T10:53:19.582Z,8876
2017-06-12T10:54:19.915Z,9140
2017-06-12T10:55:19.948Z,9336
2017-06-12T10:56:19.974Z,15652
2017-06-12T10:57:20.007Z,10140
2017-06-12T10:59:19.463Z,16144
2017-06-12T11:00:20.100Z,15616
2017-06-12T11:01:20.133Z,14744
2017-06-12T11:02:20.158Z,13968
2017-06-12T11:03:34.814Z,13652
2017-06-12T11:04:20.222Z,8160
2017-06-12T11:05:34.870Z,10068
2017-06-12T11:06:20.280Z,8816
2017-06-12T11:07:20.310Z,10008
2017-06-12T11:08:20.342Z,12732
2017-06-12T11:09:20.068Z,16864
2017-06-12T11:10:35.022Z,17280
2017-06-12T11:11:20.431Z,11340
2017-06-12T11:12:20.160Z,11200
2017-06-12T11:13:20.191Z,10972
2017-06-12T11:14:20.220Z,10964
2017-06-12T11:15:20.253Z,11736
2017-06-12T11:16:20.586Z,11552
2017-06-12T11:17:20.618Z,11540
2017-06-12T11:18:35.266Z,11544
2017-06-12T11:19:20.675Z,11644
2017-06-12T11:20:20.724Z,11748
2017-06-12T11:21:35.052Z,11480
2017-06-12T11:22:20.768Z,11484
2017-06-12T11:23:20.496Z,11276
2017-06-12T11:24:20.833Z,13424
2017-06-12T11:25:20.857Z,15028
2017-06-12T11:26:35.204Z,14772
2017-06-12T11:27:20.919Z,14396
2017-06-12T11:28:20.645Z,13540
2017-06-12T11:29:20.675Z,12728
2017-06-12T11:30:20.707Z,12176
2017-06-12T11:32:21.072Z,10980
2017-06-12T11:33:21.101Z,10760
2017-06-12T11:35:20.859Z,9172
2017-06-12T11:36:20.887Z,7668
2017-06-12T11:37:20.917Z,7900
2017-06-12T11:38:21.254Z,8736
2017-06-12T11:39:35.902Z,9576
2017-06-12T11:40:21.315Z,10120
2017-06-12T11:41:21.039Z,9360
2017-06-12T11:42:35.991Z,9232
2017-06-12T11:44:21.132Z,12944
2017-06-12T11:45:21.161Z,12240
2017-06-12T11:46:21.194Z,12616
2017-06-12T11:47:21.221Z,10916
2017-06-12T11:48:21.253Z,12208
2017-06-12T11:49:35.904Z,11600
2017-06-12T11:50:21.316Z,11132
2017-06-12T11:51:21.646Z,10652
2017-06-12T11:52:21.682Z,9980
2017-06-12T11:53:21.707Z,9376
2017-06-12T11:54:21.739Z,9376
2017-06-12T11:55:21.769Z,10956
2017-06-12T11:56:21.496Z,11736
2017-06-12T11:57:21.860Z,11504
2017-06-12T11:58:36.477Z,11492
2017-06-12T11:59:21.590Z,10640
2017-06-12T12:01:21.953Z,9004
2017-06-12T12:02:21.980Z,8564
2017-06-12T12:03:22.012Z,9188
2017-06-12T12:04:21.435Z,9284
2017-06-12T12:05:22.072Z,9576
2017-06-12T12:06:21.799Z,10080
2017-06-12T12:07:36.753Z,10148
2017-06-12T12:08:36.783Z,10296
2017-06-12T12:10:22.225Z,10468
2017-06-12T12:11:36.872Z,10604
2017-06-12T12:12:22.339Z,10320
2017-06-12T12:13:36.934Z,9944
2017-06-12T12:14:21.437Z,10104
2017-06-12T12:15:22.074Z,11912
2017-06-12T12:17:21.527Z,10328
2017-06-12T12:18:22.169Z,11828
2017-06-12T12:19:22.496Z,11640
2017-06-12T12:20:22.225Z,11052
2017-06-12T12:21:22.558Z,11084
2017-06-12T12:22:22.589Z,12084
2017-06-12T12:23:36.934Z,12268
2017-06-12T12:24:36.962Z,11220
2017-06-12T12:26:22.708Z,10624
2017-06-12T12:28:22.467Z,10252
2017-06-12T12:29:22.797Z,10408
2017-06-12T12:30:22.831Z,10224
2017-06-12T12:31:22.857Z,10108
2017-06-12T12:32:22.897Z,10004
2017-06-12T12:33:22.920Z,9760
2017-06-12T12:34:22.981Z,9312
2017-06-12T12:35:22.982Z,9000
2017-06-12T12:36:23.010Z,8764
2017-06-12T12:37:22.735Z,8780
2017-06-12T12:38:22.769Z,9500
2017-06-12T12:39:37.719Z,9544
2017-06-12T12:41:37.777Z,9672
2017-06-12T12:42:22.889Z,9940
2017-06-12T12:43:23.223Z,10180
2017-06-12T12:44:38.167Z,10180
2017-06-12T12:45:37.896Z,11804
2017-06-12T12:47:23.351Z,10068
2017-06-12T12:48:23.373Z,11756
2017-06-12T12:49:23.458Z,11956
2017-06-12T12:50:23.430Z,8640
2017-06-12T12:51:23.459Z,8132
2017-06-12T12:52:23.185Z,7580
2017-06-12T12:53:38.137Z,7976
2017-06-12T12:54:23.577Z,8408
2017-06-12T12:55:23.575Z,8780
2017-06-12T12:56:23.604Z,9116
2017-06-12T12:57:23.637Z,9156
2017-06-12T12:58:38.287Z,8996
2017-06-12T13:00:23.117Z,7848
2017-06-12T13:01:38.376Z,7688
2017-06-12T13:03:23.815Z,7296
2017-06-12T13:04:23.844Z,7272
2017-06-12T13:05:23.872Z,7504
2017-06-12T13:06:23.903Z,7632
2017-06-12T13:07:23.931Z,7764
2017-06-12T13:08:23.963Z,7876
2017-06-12T13:09:38.660Z,8144
2017-06-12T13:10:24.021Z,8468
2017-06-12T13:11:38.366Z,8460
2017-06-12T13:12:24.130Z,8344
2017-06-12T13:13:38.732Z,7612
2017-06-12T13:15:38.787Z,7140
2017-06-12T13:17:38.847Z,6440
2017-06-12T13:18:24.258Z,6168
2017-06-12T13:19:24.285Z,5720
2017-06-12T13:20:24.316Z,5212
2017-06-12T13:21:24.345Z,5008
2017-06-12T13:22:24.377Z,5224
2017-06-12T13:23:24.407Z,5864
2017-06-12T13:24:24.439Z,6476
2017-06-12T13:25:24.159Z,6960
2017-06-12T13:26:24.187Z,7352
2017-06-12T13:27:39.140Z,7868
2017-06-12T13:28:39.168Z,7740
2017-06-12T13:29:24.278Z,7828
2017-06-12T13:30:24.306Z,8176
2017-06-12T13:32:24.669Z,8588
2017-06-12T13:33:39.315Z,8740
2017-06-12T13:34:24.764Z,8636
2017-06-12T13:35:24.453Z,8252
2017-06-12T13:36:24.782Z,8096
2017-06-12T13:37:39.436Z,9028
2017-06-12T13:38:39.465Z,8836
2017-06-12T13:39:24.868Z,10460
2017-06-12T13:40:24.899Z,11836
2017-06-12T13:41:24.930Z,11444
2017-06-12T13:42:24.351Z,12240
2017-06-12T13:43:24.683Z,11700
2017-06-12T13:44:25.020Z,11872
2017-06-12T13:45:25.043Z,11524
2017-06-12T13:46:25.073Z,10788
2017-06-12T13:47:25.104Z,9720
2017-06-12T13:48:39.756Z,8976
2017-06-12T13:49:25.162Z,8628
2017-06-12T13:50:25.193Z,8228
2017-06-12T13:51:24.919Z,7788
2017-06-12T13:52:24.947Z,7656
2017-06-12T13:53:25.295Z,7520
2017-06-12T13:54:25.003Z,7576
2017-06-12T13:55:25.336Z,7756
2017-06-12T13:56:25.065Z,5404
2017-06-12T13:57:25.396Z,5144
2017-06-12T13:58:40.043Z,5324
2017-06-12T13:59:25.152Z,5628
2017-06-12T14:01:25.510Z,6648
2017-06-12T14:02:25.240Z,6964
2017-06-12T14:03:25.570Z,6840
2017-06-12T14:05:25.629Z,5876
2017-06-12T14:06:25.355Z,5636
2017-06-12T14:07:25.685Z,5512
2017-06-12T14:08:25.104Z,5768
2017-06-12T14:09:25.740Z,6256
2017-06-12T14:10:25.473Z,7112
2017-06-12T14:11:40.422Z,7304
2017-06-12T14:12:25.525Z,7288
2017-06-12T14:13:25.856Z,7252
2017-06-12T14:14:40.505Z,6948
2017-06-12T14:15:25.925Z,6628
2017-06-12T14:16:40.563Z,6648
2017-06-12T14:17:40.590Z,6308
2017-06-12T14:18:26.007Z,6112
2017-06-12T14:19:26.031Z,5908
2017-06-12T14:20:40.675Z,5256
2017-06-12T14:21:25.785Z,5116
2017-06-12T14:22:25.814Z,5048
2017-06-12T14:23:25.857Z,5092
2017-06-12T14:24:26.170Z,4908
2017-06-12T14:26:26.232Z,4844
2017-06-12T14:27:25.956Z,4548
2017-06-12T14:28:26.335Z,4216
2017-06-12T14:29:40.956Z,4196
2017-06-12T14:30:26.392Z,4084
2017-06-12T14:31:26.370Z,4112
2017-06-12T14:32:26.406Z,4548
2017-06-12T14:33:41.045Z,5792